createdAt,value
2023-05-09T00:00:38.656Z,101833.05
2023-05-09T00:03:15.574Z,101833.92
2023-05-09T00:05:47.121Z,101825.23
2023-05-09T00:08:16.486Z,101826.95
2023-05-09T00:10:45.381Z,101829.58
2023-05-09T00:13:14.714Z,101832.16
2023-05-09T00:15:43.756Z,101830.39
2023-05-09T00:18:14.610Z,101824.37
2023-05-09T00:20:43.813Z,101826.95
2023-05-09T00:23:14.485Z,101825.23
2023-05-09T00:25:46.010Z,101820.08
2023-05-09T00:28:14.962Z,101820.89
2023-05-09T00:30:43.981Z,101816.45
2023-05-09T00:33:14.828Z,101814.55
2023-05-09T00:35:43.827Z,101817.76
2023-05-09T00:38:13.543Z,101820.02
2023-05-09T00:40:42.409Z,101825.88
2023-05-09T00:43:14.088Z,101814.66
2023-05-09T00:45:43.419Z,101821.53
2023-05-09T00:48:16.034Z,101823.16
2023-05-09T00:50:52.328Z,101817.95
2023-05-09T00:53:21.486Z,101822.21
2023-05-09T00:55:50.602Z,101827.31
2023-05-09T00:58:19.703Z,101825.46
2023-05-09T01:00:48.650Z,101821.83
2023-05-09T01:03:18.542Z,101820.73
2023-05-09T01:05:55.936Z,101818.16
2023-05-09T01:08:37.755Z,101814.52
2023-05-09T01:11:15.302Z,101816.09
2023-05-09T01:13:57.831Z,101822.11
2023-05-09T01:16:35.239Z,101817.02
2023-05-09T01:19:22.194Z,101822.17
2023-05-09T01:21:52.781Z,101819.39
2023-05-09T01:24:44.959Z,101823.48
2023-05-09T01:27:28.747Z,101812.78
2023-05-09T01:29:59.645Z,101815.16
2023-05-09T01:32:33.914Z,101812.39
2023-05-09T01:35:05.778Z,101815.78
2023-05-09T01:37:39.832Z,101816.59
2023-05-09T01:40:14.270Z,101813.26
2023-05-09T01:42:47.633Z,101815.69
2023-05-09T01:45:18.379Z,101816.44
2023-05-09T01:47:50.092Z,101815.44
2023-05-09T01:50:21.952Z,101815.34
2023-05-09T01:52:56.174Z,101814.53
2023-05-09T01:55:26.825Z,101816.10
2023-05-09T01:57:58.534Z,101811.50
2023-05-09T02:00:28.632Z,101812.11
2023-05-09T02:02:58.791Z,101813.78
2023-05-09T02:05:31.118Z,101808.72
2023-05-09T02:08:03.401Z,101807.02
2023-05-09T02:10:37.501Z,101806.26
2023-05-09T02:13:08.919Z,101807.02
2023-05-09T02:15:39.943Z,101805.05
2023-05-09T02:18:08.919Z,101810.14
2023-05-09T02:20:39.372Z,101804.03
2023-05-09T02:23:08.680Z,101802.92
2023-05-09T02:25:38.815Z,101810.73
2023-05-09T02:28:08.652Z,101803.83
2023-05-09T02:30:44.304Z,101801.85
2023-05-09T02:33:15.506Z,101802.52
2023-05-09T02:35:49.064Z,101800.75
2023-05-09T02:38:18.656Z,101811.13
2023-05-09T02:40:50.984Z,101804.22
2023-05-09T02:43:23.504Z,101806.70
2023-05-09T02:45:52.423Z,101808.47
2023-05-09T02:48:21.332Z,101813.71
2023-05-09T02:50:50.346Z,101805.89
2023-05-09T02:53:19.265Z,101806.64
2023-05-09T02:55:50.034Z,101816.88
2023-05-09T02:58:19.422Z,101803.92
2023-05-09T03:00:48.256Z,101812.34
2023-05-09T03:03:18.785Z,101812.39
2023-05-09T03:05:50.859Z,101806.37
2023-05-09T03:08:19.797Z,101806.29
2023-05-09T03:10:48.624Z,101814.81
2023-05-09T03:13:18.216Z,101804.46
2023-05-09T03:15:47.049Z,101813.14
2023-05-09T03:18:16.017Z,101808.05
2023-05-09T03:20:45.086Z,101805.33
2023-05-09T03:23:14.489Z,101799.31
2023-05-09T03:25:43.420Z,101804.61
2023-05-09T03:28:17.944Z,101802.25
2023-05-09T03:30:46.773Z,101797.02
2023-05-09T03:33:19.864Z,101804.82
2023-05-09T03:35:48.730Z,101799.67
2023-05-09T03:38:18.341Z,101804.88
2023-05-09T03:40:47.393Z,101802.45
2023-05-09T03:43:19.434Z,101807.87
2023-05-09T03:45:49.344Z,101815.14
2023-05-09T03:48:19.292Z,101811.30
2023-05-09T03:50:51.936Z,101813.52
2023-05-09T03:53:21.149Z,101819.22
2023-05-09T03:55:50.232Z,101815.56
2023-05-09T03:58:19.163Z,101824.63
2023-05-09T04:00:52.159Z,101826.03
2023-05-09T04:03:23.301Z,101825.80
2023-05-09T04:05:54.623Z,101819.57
2023-05-09T04:08:38.712Z,101827.86
2023-05-09T04:11:08.189Z,101819.93
2023-05-09T04:13:39.298Z,101819.24
2023-05-09T04:16:16.457Z,101809.91
2023-05-09T04:18:46.041Z,101804.89
2023-05-09T04:21:16.637Z,101805.80
2023-05-09T04:23:48.491Z,101804.58
2023-05-09T04:26:17.903Z,101809.39
2023-05-09T04:28:48.605Z,101805.67
2023-05-09T04:31:18.868Z,101818.80
2023-05-09T04:33:51.427Z,101798.86
2023-05-09T04:36:20.643Z,101800.77
2023-05-09T04:38:49.785Z,101803.95
2023-05-09T04:41:22.547Z,101801.40
2023-05-09T04:43:51.950Z,101801.72
2023-05-09T04:46:25.654Z,101800.45
2023-05-09T04:48:56.138Z,101792.95
2023-05-09T04:51:25.582Z,101795.89
2023-05-09T04:53:57.518Z,101789.77
2023-05-09T04:56:31.218Z,101775.94
2023-05-09T04:59:03.098Z,101786.68
2023-05-09T05:01:35.238Z,101786.44
2023-05-09T05:04:05.395Z,101791.52
2023-05-09T05:06:36.392Z,101787.20
2023-05-09T05:09:07.087Z,101790.70
2023-05-09T05:11:41.660Z,101788.90
2023-05-09T05:14:16.210Z,101790.24
2023-05-09T05:16:46.206Z,101791.38
2023-05-09T05:19:15.149Z,101794.46
2023-05-09T05:21:44.240Z,101792.92
2023-05-09T05:24:13.376Z,101784.86
2023-05-09T05:26:44.078Z,101789.75
2023-05-09T05:29:13.982Z,101785.80
2023-05-09T05:31:49.322Z,101790.66
2023-05-09T05:34:18.750Z,101785.27
2023-05-09T05:36:48.525Z,101791.09
2023-05-09T05:39:18.762Z,101777.55
2023-05-09T05:41:48.886Z,101782.77
2023-05-09T05:44:21.771Z,101772.70
2023-05-09T05:46:51.983Z,101775.41
2023-05-09T05:49:21.658Z,101775.89
2023-05-09T05:51:51.308Z,101767.92
2023-05-09T05:54:21.478Z,101766.52
2023-05-09T05:56:50.677Z,101772.84
2023-05-09T05:59:19.671Z,101779.85
2023-05-09T06:01:49.291Z,101774.06
2023-05-09T06:04:18.320Z,101771.67
2023-05-09T06:06:47.598Z,101773.42
2023-05-09T06:09:16.576Z,101778.52
2023-05-09T06:11:45.504Z,101775.01
2023-05-09T06:14:14.559Z,101775.58
2023-05-09T06:16:44.736Z,101765.43
2023-05-09T06:19:14.084Z,101775.14
2023-05-09T06:21:43.628Z,101772.76
2023-05-09T06:24:23.485Z,101773.05
2023-05-09T06:27:06.861Z,101775.25
2023-05-09T06:29:36.941Z,101779.16
2023-05-09T06:32:06.694Z,101776.06
2023-05-09T06:34:38.872Z,101777.73
2023-05-09T06:37:07.872Z,101775.33
2023-05-09T06:39:37.641Z,101784.28
2023-05-09T06:42:07.618Z,101785.84
2023-05-09T06:44:39.751Z,101786.55
2023-05-09T06:47:08.868Z,101782.58
2023-05-09T06:49:37.760Z,101783.77
2023-05-09T06:52:06.751Z,101779.59
2023-05-09T06:54:36.166Z,101781.69
2023-05-09T06:57:05.114Z,101779.28
2023-05-09T06:59:36.201Z,101775.97
2023-05-09T07:02:05.211Z,101767.36
2023-05-09T07:04:36.054Z,101762.19
2023-05-09T07:07:05.620Z,101762.16
2023-05-09T07:09:36.420Z,101763.08
2023-05-09T07:12:06.387Z,101764.83
2023-05-09T07:14:37.068Z,101763.24
2023-05-09T07:17:21.998Z,101768.63
2023-05-09T07:19:52.934Z,101773.86
2023-05-09T07:22:21.958Z,101766.09
2023-05-09T07:24:50.906Z,101761.91
2023-05-09T07:27:19.900Z,101759.20
2023-05-09T07:29:51.691Z,101764.72
2023-05-09T07:32:20.702Z,101755.27
2023-05-09T07:34:49.855Z,101755.22
2023-05-09T07:37:18.710Z,101754.30
2023-05-09T07:39:47.649Z,101747.52
2023-05-09T07:42:16.759Z,101751.23
2023-05-09T07:44:46.664Z,101739.69
2023-05-09T07:47:15.556Z,101738.77
2023-05-09T07:49:45.961Z,101739.62
2023-05-09T07:52:16.795Z,101746.55
2023-05-09T07:54:46.114Z,101729.85
2023-05-09T07:57:15.627Z,101739.54
2023-05-09T07:59:44.631Z,101727.18
2023-05-09T08:02:13.512Z,101736.82
2023-05-09T08:04:42.455Z,101725.19
2023-05-09T08:07:11.415Z,101725.02
2023-05-09T08:09:40.274Z,101728.33
2023-05-09T08:12:09.705Z,101727.34
2023-05-09T08:14:39.217Z,101724.84
2023-05-09T08:17:08.296Z,101716.13
2023-05-09T08:19:37.208Z,101710.78
2023-05-09T08:22:06.050Z,101712.64
2023-05-09T08:24:37.437Z,101708.45
2023-05-09T08:27:06.247Z,101696.02
2023-05-09T08:29:35.544Z,101709.25
2023-05-09T08:32:04.896Z,101702.14
2023-05-09T08:34:35.069Z,101699.42
2023-05-09T08:37:05.061Z,101696.61
2023-05-09T08:39:36.280Z,101691.24
2023-05-09T08:42:06.831Z,101690.96
2023-05-09T08:44:37.154Z,101686.17
2023-05-09T08:47:06.432Z,101681.08
2023-05-09T08:49:37.817Z,101682.26
2023-05-09T08:52:07.396Z,101680.58
2023-05-09T08:54:36.895Z,101671.66
2023-05-09T08:57:06.567Z,101664.33
2023-05-09T08:59:38.109Z,101662.68
2023-05-09T09:02:07.973Z,101668.15
2023-05-09T09:04:36.913Z,101664.53
2023-05-09T09:07:07.647Z,101663.08
2023-05-09T09:09:45.336Z,101658.33
2023-05-09T09:12:16.144Z,101664.24
2023-05-09T09:14:48.337Z,101664.88
2023-05-09T09:17:20.101Z,101664.00
2023-05-09T09:19:53.758Z,101665.10
2023-05-09T09:22:22.582Z,101653.92
2023-05-09T09:24:51.508Z,101654.95
2023-05-09T09:27:21.508Z,101647.33
2023-05-09T09:29:50.312Z,101642.99
2023-05-09T09:32:19.463Z,101648.52
2023-05-09T09:34:50.235Z,101647.89
2023-05-09T09:37:23.474Z,101643.09
2023-05-09T09:39:56.306Z,101635.92
2023-05-09T09:42:25.354Z,101641.20
2023-05-09T09:45:02.700Z,101637.02
2023-05-09T09:47:37.150Z,101634.47
2023-05-09T09:50:15.353Z,101636.48
2023-05-09T09:52:48.801Z,101628.72
2023-05-09T09:55:18.218Z,101631.29
2023-05-09T09:57:47.931Z,101634.35
2023-05-09T10:00:19.514Z,101630.48
2023-05-09T10:02:50.155Z,101622.70
2023-05-09T10:05:23.381Z,101620.54
2023-05-09T10:07:56.091Z,101623.20
2023-05-09T10:10:28.031Z,101622.56
2023-05-09T10:12:59.224Z,101616.48
2023-05-09T10:15:38.453Z,101617.07
2023-05-09T10:18:19.332Z,101607.28
2023-05-09T10:20:51.577Z,101608.49
2023-05-09T10:23:22.922Z,101604.55
2023-05-09T10:25:58.630Z,101594.89
2023-05-09T10:28:31.978Z,101598.48
2023-05-09T10:31:07.136Z,101590.89
2023-05-09T10:33:46.204Z,101597.85
2023-05-09T10:36:17.539Z,101601.45
2023-05-09T10:38:48.177Z,101587.11
2023-05-09T10:41:18.922Z,101604.55
2023-05-09T10:43:48.292Z,101592.00
2023-05-09T10:46:17.507Z,101587.70
2023-05-09T10:48:48.854Z,101589.73
2023-05-09T10:51:18.320Z,101578.86
2023-05-09T10:53:49.213Z,101582.29
2023-05-09T10:56:26.497Z,101578.38
2023-05-09T10:58:55.947Z,101574.32
2023-05-09T11:01:34.412Z,101571.95
2023-05-09T11:04:10.944Z,101573.97
2023-05-09T11:06:50.349Z,101572.25
2023-05-09T11:09:35.354Z,101553.05
2023-05-09T11:12:12.300Z,101558.00
2023-05-09T11:14:44.673Z,101552.61
2023-05-09T11:17:15.669Z,101555.49
2023-05-09T11:20:03.069Z,101545.91
2023-05-09T11:22:40.863Z,101550.03
2023-05-09T11:25:11.227Z,101541.83
2023-05-09T11:27:43.416Z,101540.75
2023-05-09T11:30:15.090Z,101532.98
2023-05-09T11:32:50.349Z,101520.19
2023-05-09T11:35:21.542Z,101520.19
2023-05-09T11:37:54.639Z,101525.85
2023-05-09T11:40:23.764Z,101519.06
2023-05-09T11:42:57.784Z,101515.74
2023-05-09T11:45:30.208Z,101512.36
2023-05-09T11:48:08.284Z,101502.23
2023-05-09T11:50:37.533Z,101510.34
2023-05-09T11:53:08.407Z,101506.23
2023-05-09T11:55:40.993Z,101497.00
2023-05-09T11:58:10.317Z,101486.16
2023-05-09T12:00:45.038Z,101485.70
2023-05-09T12:03:14.609Z,101479.66
2023-05-09T12:05:44.097Z,101485.02
2023-05-09T12:08:15.030Z,101481.00
2023-05-09T12:10:44.114Z,101475.49
2023-05-09T12:13:13.216Z,101475.73
2023-05-09T12:15:45.441Z,101474.73
2023-05-09T12:18:16.522Z,101463.10
2023-05-09T12:20:47.688Z,101478.50
2023-05-09T12:23:20.427Z,101472.09
2023-05-09T12:25:55.085Z,101459.89
2023-05-09T12:28:26.056Z,101461.73
2023-05-09T12:30:55.499Z,101457.84
2023-05-09T12:33:24.952Z,101449.89
2023-05-09T12:36:05.199Z,101449.01
2023-05-09T12:38:38.063Z,101447.59
2023-05-09T12:41:18.822Z,101442.81
2023-05-09T12:43:58.435Z,101439.28
2023-05-09T12:46:31.027Z,101442.66
2023-05-09T12:49:00.174Z,101441.23
2023-05-09T12:51:30.502Z,101431.50
2023-05-09T12:54:04.425Z,101428.23
2023-05-09T12:56:35.975Z,101421.20
2023-05-09T12:59:10.645Z,101419.47
2023-05-09T13:01:41.496Z,101425.28
2023-05-09T13:04:13.481Z,101421.09
2023-05-09T13:06:50.187Z,101412.13
2023-05-09T13:09:19.548Z,101412.02
2023-05-09T13:11:49.465Z,101405.36
2023-05-09T13:14:19.100Z,101397.22
2023-05-09T13:16:51.530Z,101404.67
2023-05-09T13:19:21.068Z,101403.25
2023-05-09T13:21:50.036Z,101390.18
2023-05-09T13:24:19.020Z,101403.71
2023-05-09T13:26:48.023Z,101389.91
2023-05-09T13:29:16.953Z,101386.37
2023-05-09T13:31:45.775Z,101385.34
2023-05-09T13:34:21.577Z,101367.23
2023-05-09T13:36:50.539Z,101376.34
2023-05-09T13:39:19.860Z,101379.66
2023-05-09T13:41:50.728Z,101371.38
2023-05-09T13:44:19.690Z,101373.69
2023-05-09T13:46:48.693Z,101363.02
2023-05-09T13:49:19.148Z,101377.45
2023-05-09T13:51:48.121Z,101367.14
2023-05-09T13:54:19.193Z,101359.59
2023-05-09T13:56:48.300Z,101360.75
2023-05-09T13:59:24.323Z,101347.12
2023-05-09T14:01:56.910Z,101346.56
2023-05-09T14:04:26.776Z,101342.63
2023-05-09T14:06:56.224Z,101343.84
2023-05-09T14:09:25.761Z,101338.92
2023-05-09T14:11:56.916Z,101336.98
2023-05-09T14:14:26.068Z,101336.17
2023-05-09T14:16:55.169Z,101341.36
2023-05-09T14:19:26.502Z,101336.17
2023-05-09T14:21:55.914Z,101328.58
2023-05-09T14:24:25.314Z,101325.55
2023-05-09T14:26:54.230Z,101321.55
2023-05-09T14:29:23.529Z,101324.68
2023-05-09T14:31:52.757Z,101322.34
2023-05-09T14:34:24.758Z,101316.47
2023-05-09T14:36:53.651Z,101313.01
2023-05-09T14:39:22.895Z,101321.77
2023-05-09T14:41:52.688Z,101317.62
2023-05-09T14:44:24.741Z,101314.33
2023-05-09T14:46:53.547Z,101324.16
2023-05-09T14:49:22.517Z,101312.69
2023-05-09T14:51:51.544Z,101318.14
2023-05-09T14:54:20.315Z,101307.73
2023-05-09T14:56:49.325Z,101315.20
2023-05-09T14:59:18.516Z,101316.43
2023-05-09T15:01:47.394Z,101307.93
2023-05-09T15:04:19.033Z,101307.42
2023-05-09T15:06:48.031Z,101297.16
2023-05-09T15:09:18.491Z,101293.02
2023-05-09T15:11:49.032Z,101295.09
2023-05-09T15:14:18.547Z,101298.84
2023-05-09T15:16:47.855Z,101291.92
2023-05-09T15:19:16.973Z,101294.77
2023-05-09T15:21:46.138Z,101279.23
2023-05-09T15:24:15.406Z,101284.77
2023-05-09T15:26:44.447Z,101280.55
2023-05-09T15:29:13.418Z,101284.16
2023-05-09T15:31:43.814Z,101276.31
2023-05-09T15:34:12.798Z,101277.28
2023-05-09T15:36:41.608Z,101272.97
2023-05-09T15:39:10.807Z,101275.69
2023-05-09T15:41:40.710Z,101264.42
2023-05-09T15:44:09.906Z,101267.22
2023-05-09T15:46:41.775Z,101259.58
2023-05-09T15:49:10.869Z,101257.08
2023-05-09T15:51:39.648Z,101263.42
2023-05-09T15:54:08.608Z,101251.45
2023-05-09T15:56:38.982Z,101259.55
2023-05-09T15:59:09.327Z,101251.72
2023-05-09T16:01:39.164Z,101261.44
2023-05-09T16:04:10.265Z,101243.94
2023-05-09T16:06:39.917Z,101250.32
2023-05-09T16:09:09.039Z,101248.77
2023-05-09T16:11:37.956Z,101247.98
2023-05-09T16:14:08.768Z,101239.34
2023-05-09T16:16:38.299Z,101237.61
2023-05-09T16:19:09.868Z,101236.92
2023-05-09T16:21:39.239Z,101230.05
2023-05-09T16:24:10.622Z,101227.53
2023-05-09T16:26:40.130Z,101228.48
2023-05-09T16:29:10.695Z,101222.48
2023-05-09T16:31:44.412Z,101220.88
2023-05-09T16:34:12.588Z,101219.28
2023-05-09T16:36:43.595Z,101207.13
2023-05-09T16:39:15.585Z,101220.47
2023-05-09T16:41:44.525Z,101219.77
2023-05-09T16:44:14.869Z,101222.61
2023-05-09T16:46:46.942Z,101212.33
2023-05-09T16:49:15.969Z,101205.44
2023-05-09T16:51:45.119Z,101207.34
2023-05-09T16:54:13.977Z,101205.70
2023-05-09T16:56:45.176Z,101206.72
2023-05-09T16:59:14.464Z,101199.80
2023-05-09T17:01:47.269Z,101199.95
2023-05-09T17:04:19.110Z,101207.16
2023-05-09T17:06:49.585Z,101199.44
2023-05-09T17:09:18.828Z,101204.86
2023-05-09T17:11:48.356Z,101199.75
2023-05-09T17:14:17.356Z,101193.80
2023-05-09T17:16:46.453Z,101194.79
2023-05-09T17:19:16.464Z,101193.16
2023-05-09T17:21:45.528Z,101194.20
2023-05-09T17:24:15.324Z,101183.83
2023-05-09T17:26:44.158Z,101189.23
2023-05-09T17:29:13.233Z,101191.19
2023-05-09T17:31:44.703Z,101189.59
2023-05-09T17:34:13.978Z,101195.87
2023-05-09T17:36:42.905Z,101193.34
2023-05-09T17:39:11.880Z,101189.11
2023-05-09T17:41:41.249Z,101186.61
2023-05-09T17:44:10.792Z,101197.28
2023-05-09T17:46:45.236Z,101197.44
2023-05-09T17:49:16.169Z,101188.88
2023-05-09T17:51:48.875Z,101198.67
2023-05-09T17:54:18.775Z,101199.74
2023-05-09T17:56:50.470Z,101195.48
2023-05-09T17:59:19.386Z,101193.89
2023-05-09T18:01:48.342Z,101196.66
2023-05-09T18:04:17.118Z,101200.30
2023-05-09T18:06:46.881Z,101192.55
2023-05-09T18:09:15.684Z,101203.13
2023-05-09T18:11:45.499Z,101198.03
2023-05-09T18:14:14.630Z,101195.55
2023-05-09T18:16:44.545Z,101195.72
2023-05-09T18:19:13.411Z,101202.80
2023-05-09T18:21:42.216Z,101202.05
2023-05-09T18:24:10.991Z,101197.78
2023-05-09T18:26:42.389Z,101203.15
2023-05-09T18:29:11.772Z,101199.76
2023-05-09T18:31:41.959Z,101204.19
2023-05-09T18:34:11.190Z,101203.43
2023-05-09T18:36:40.238Z,101212.24
2023-05-09T18:39:11.200Z,101207.92
2023-05-09T18:41:40.535Z,101212.36
2023-05-09T18:44:12.068Z,101215.92
2023-05-09T18:46:44.276Z,101214.23
2023-05-09T18:49:13.721Z,101214.25
2023-05-09T18:51:42.741Z,101213.42
2023-05-09T18:54:13.470Z,101220.43
2023-05-09T18:56:43.091Z,101214.35
2023-05-09T18:59:13.299Z,101216.12
2023-05-09T19:01:45.784Z,101213.54
2023-05-09T19:04:16.712Z,101206.62
2023-05-09T19:06:45.748Z,101204.90
2023-05-09T19:09:14.562Z,101214.48
2023-05-09T19:11:43.566Z,101204.92
2023-05-09T19:14:21.948Z,101212.77
2023-05-09T19:16:50.948Z,101216.25
2023-05-09T19:19:20.005Z,101207.56
2023-05-09T19:21:56.311Z,101198.84
2023-05-09T19:24:32.459Z,101203.16
2023-05-09T19:27:02.168Z,101202.31
2023-05-09T19:29:31.105Z,101197.08
2023-05-09T19:32:00.783Z,101211.00
2023-05-09T19:34:29.866Z,101211.83
2023-05-09T19:36:58.703Z,101207.49
2023-05-09T19:39:29.227Z,101206.61
2023-05-09T19:42:00.306Z,101204.00
2023-05-09T19:44:30.160Z,101199.63
2023-05-09T19:47:00.496Z,101199.59
2023-05-09T19:49:30.632Z,101204.81
2023-05-09T19:51:59.611Z,101207.37
2023-05-09T19:54:28.482Z,101205.62
2023-05-09T19:56:57.410Z,101209.96
2023-05-09T19:59:27.132Z,101207.31
2023-05-09T20:01:56.495Z,101203.81
2023-05-09T20:04:26.297Z,101205.52
2023-05-09T20:06:55.244Z,101199.41
2023-05-09T20:09:31.711Z,101200.25
2023-05-09T20:12:03.226Z,101197.59
2023-05-09T20:14:32.177Z,101204.52
2023-05-09T20:17:02.013Z,101194.94
2023-05-09T20:19:35.361Z,101200.16
2023-05-09T20:22:04.207Z,101200.98
2023-05-09T20:24:34.031Z,101196.61
2023-05-09T20:27:03.005Z,101195.72
2023-05-09T20:29:32.511Z,101198.30
2023-05-09T20:32:02.248Z,101194.78
2023-05-09T20:34:31.630Z,101186.95
2023-05-09T20:37:03.695Z,101194.70
2023-05-09T20:39:32.737Z,101192.06
2023-05-09T20:42:05.936Z,101192.82
2023-05-09T20:44:36.981Z,101188.47
2023-05-09T20:47:06.680Z,101196.24
2023-05-09T20:49:38.234Z,101185.80
2023-05-09T20:52:07.301Z,101187.48
2023-05-09T20:54:36.634Z,101190.94
2023-05-09T20:57:05.480Z,101183.98
2023-05-09T20:59:34.956Z,101185.70
2023-05-09T21:02:03.978Z,101189.15
2023-05-09T21:04:32.921Z,101194.31
2023-05-09T21:07:06.454Z,101189.97
2023-05-09T21:09:35.981Z,101190.78
2023-05-09T21:12:05.342Z,101186.44
2023-05-09T21:14:35.194Z,101191.59
2023-05-09T21:17:04.226Z,101187.25
2023-05-09T21:19:34.675Z,101188.10
2023-05-09T21:22:03.600Z,101192.41
2023-05-09T21:24:37.115Z,101188.91
2023-05-09T21:27:06.211Z,101188.91
2023-05-09T21:29:38.473Z,101193.22
2023-05-09T21:32:08.090Z,101186.27
2023-05-09T21:34:37.181Z,101180.17
2023-05-09T21:37:06.161Z,101185.34
2023-05-09T21:39:36.709Z,101180.98
2023-05-09T21:42:05.714Z,101187.03
2023-05-09T21:44:34.995Z,101189.59
2023-05-09T21:47:04.176Z,101189.59
2023-05-09T21:49:35.014Z,101186.05
2023-05-09T21:52:05.762Z,101184.30
2023-05-09T21:54:35.180Z,101181.66
2023-05-09T21:57:04.259Z,101184.25
2023-05-09T21:59:34.965Z,101185.06
2023-05-09T22:02:03.935Z,101183.32
2023-05-09T22:04:34.104Z,101182.42
2023-05-09T22:07:05.212Z,101182.41
2023-05-09T22:09:36.339Z,101185.80
2023-05-09T22:12:06.110Z,101184.86
2023-05-09T22:14:45.374Z,101184.81
2023-05-09T22:17:22.226Z,101188.20
2023-05-09T22:19:52.538Z,101186.41
2023-05-09T22:22:21.516Z,101187.24
2023-05-09T22:24:50.453Z,101182.86
2023-05-09T22:27:19.375Z,101181.09
2023-05-09T22:29:48.212Z,101177.59
2023-05-09T22:32:17.753Z,101175.80
2023-05-09T22:34:48.064Z,101174.00
2023-05-09T22:37:17.340Z,101167.91
2023-05-09T22:39:47.758Z,101174.78
2023-05-09T22:42:16.807Z,101168.68
2023-05-09T22:44:46.676Z,101162.58
2023-05-09T22:47:15.847Z,101170.30
2023-05-09T22:49:45.839Z,101167.66
2023-05-09T22:52:15.268Z,101165.90
2023-05-09T22:54:45.260Z,101163.21
2023-05-09T22:57:17.309Z,101164.88
2023-05-09T22:59:46.751Z,101174.34
2023-05-09T23:02:16.708Z,101175.14
2023-05-09T23:04:45.673Z,101165.55
2023-05-09T23:07:15.306Z,101167.23
2023-05-09T23:09:45.931Z,101160.28
2023-05-09T23:12:15.184Z,101161.97
2023-05-09T23:14:44.003Z,101161.90
2023-05-09T23:17:12.892Z,101157.48
2023-05-09T23:19:41.972Z,101158.27
2023-05-09T23:22:10.903Z,101162.53
2023-05-09T23:24:39.622Z,101155.54
2023-05-09T23:27:09.035Z,101158.97
2023-05-09T23:29:37.845Z,101160.65
2023-05-09T23:32:06.790Z,101160.59
2023-05-09T23:34:36.209Z,101156.23
2023-05-09T23:37:11.954Z,101159.66
2023-05-09T23:39:42.659Z,101157.00
2023-05-09T23:42:11.887Z,101160.38
2023-05-09T23:44:40.772Z,101162.02
2023-05-09T23:47:10.381Z,101156.77
2023-05-09T23:49:39.810Z,101154.99
2023-05-09T23:52:09.726Z,101149.75
2023-05-09T23:54:39.435Z,101148.84
2023-05-09T23:57:08.413Z,101149.69
2023-05-09T23:59:37.555Z,101143.58
